Time,TemperatureF,DewpointF,PressureIn,WindDirection,WindDirectionDegrees,WindSpeedMPH,WindSpeedGustMPH,Humidity,HourlyPrecipIn,Conditions,Clouds,dailyrainin,SoftwareType,DateUTC
2013-01-21 00:03:00,14.0,9.0,30.29,West,279,8.0,-999.0,79,-99.99,,,-99.99,,2013-01-21 06:03:00,
2013-01-21 00:12:00,14.0,9.0,30.29,West,279,8.0,-999.0,79,-99.99,,,-99.99,,2013-01-21 06:12:00,
2013-01-21 00:23:00,14.0,8.0,30.28,West,260,10.0,-999.0,77,-99.99,,,-99.99,,2013-01-21 06:23:00,
2013-01-21 00:33:00,14.0,8.0,30.28,West,261,8.0,-999.0,78,-99.99,,,-99.99,,2013-01-21 06:33:00,
2013-01-21 00:43:00,14.0,8.0,30.28,West,261,8.0,-999.0,78,-99.99,,,-99.99,,2013-01-21 06:43:00,
2013-01-21 00:52:00,13.0,7.0,30.27,WSW,247,10.0,-999.0,78,-99.99,,,-99.99,,2013-01-21 06:52:00,
2013-01-21 01:03:00,13.0,7.0,30.27,WSW,252,11.0,-999.0,78,-99.99,,,-99.99,,2013-01-21 07:03:00,
2013-01-21 01:13:00,13.0,7.0,30.27,WSW,252,11.0,-999.0,78,-99.99,,,-99.99,,2013-01-21 07:13:00,
2013-01-21 01:22:00,12.0,6.0,30.27,West,266,9.0,-999.0,78,-99.99,,,-99.99,,2013-01-21 07:22:00,
2013-01-21 01:33:00,12.0,7.0,30.27,West,262,10.0,-999.0,79,-99.99,,,-99.99,,2013-01-21 07:33:00,
2013-01-21 01:42:00,12.0,7.0,30.27,West,262,10.0,-999.0,79,-99.99,,,-99.99,,2013-01-21 07:42:00,
2013-01-21 01:52:00,12.0,7.0,30.27,West,267,9.0,-999.0,80,-99.99,,,-99.99,,2013-01-21 07:52:00,
2013-01-21 02:03:00,12.0,6.0,30.27,West,262,11.0,-999.0,78,-99.99,,,-99.99,,2013-01-21 08:03:00,
2013-01-21 02:13:00,12.0,6.0,30.27,West,262,11.0,-999.0,78,-99.99,,,-99.99,,2013-01-21 08:13:00,
2013-01-21 02:22:00,12.0,6.0,30.27,WNW,289,8.0,-999.0,78,-99.99,,,-99.99,,2013-01-21 08:22:00,
2013-01-21 02:32:00,12.0,6.0,30.27,West,279,10.0,-999.0,78,-99.99,,,-99.99,,2013-01-21 08:32:00,
2013-01-21 02:42:00,12.0,6.0,30.27,West,279,10.0,-999.0,78,-99.99,,,-99.99,,2013-01-21 08:42:00,
2013-01-21 02:53:00,12.0,6.0,30.27,West,267,9.0,-999.0,78,-99.99,,,-99.99,,2013-01-21 08:53:00,
2013-01-21 03:03:00,12.0,6.0,30.26,West,263,9.0,-999.0,77,-99.99,,,-99.99,,2013-01-21 09:03:00,
2013-01-21 03:12:00,12.0,6.0,30.26,West,263,9.0,-999.0,77,-99.99,,,-99.99,,2013-01-21 09:12:00,
2013-01-21 03:23:00,12.0,6.0,30.26,WSW,258,8.0,-999.0,77,-99.99,,,-99.99,,2013-01-21 09:23:00,
2013-01-21 03:33:00,12.0,6.0,30.25,West,270,8.0,-999.0,77,-99.99,,,-99.99,,2013-01-21 09:33:00,
2013-01-21 03:42:00,12.0,6.0,30.25,West,270,8.0,-999.0,77,-99.99,,,-99.99,,2013-01-21 09:42:00,
2013-01-21 03:52:00,12.0,6.0,30.25,West,270,8.0,-999.0,77,-99.99,,,-99.99,,2013-01-21 09:52:00,
2013-01-21 04:02:00,13.0,7.0,30.24,West,262,10.0,-999.0,75,-99.99,,,-99.99,,2013-01-21 10:02:00,
2013-01-21 04:12:00,13.0,7.0,30.24,West,262,10.0,-999.0,75,-99.99,,,-99.99,,2013-01-21 10:12:00,
2013-01-21 04:22:00,13.0,7.0,30.23,West,265,10.0,-999.0,77,-99.99,,,-99.99,,2013-01-21 10:22:00,
2013-01-21 04:32:00,13.0,7.0,30.23,West,267,10.0,-999.0,76,-99.99,,,-99.99,,2013-01-21 10:32:00,
2013-01-21 04:43:00,13.0,7.0,30.23,West,267,10.0,-999.0,76,-99.99,,,-99.99,,2013-01-21 10:43:00,
2013-01-21 04:52:00,13.0,8.0,30.23,West,279,11.0,-999.0,79,-99.99,,,-99.99,,2013-01-21 10:52:00,
2013-01-21 05:02:00,12.0,7.0,30.23,West,277,11.0,-999.0,79,-99.99,,,-99.99,,2013-01-21 11:02:00,
2013-01-21 05:23:00,12.0,7.0,30.23,West,259,9.0,-999.0,79,-99.99,,,-99.99,,2013-01-21 11:23:00,
2013-01-21 05:33:00,11.0,5.0,30.23,WSW,242,13.0,-999.0,77,-99.99,,,-99.99,,2013-01-21 11:33:00,
2013-01-21 05:43:00,11.0,5.0,30.23,WSW,242,13.0,-999.0,77,-99.99,,,-99.99,,2013-01-21 11:43:00,
2013-01-21 05:53:00,11.0,5.0,30.23,WSW,242,13.0,-999.0,77,-99.99,,,-99.99,,2013-01-21 11:53:00,
2013-01-21 06:02:00,11.0,5.0,30.23,WNW,285,13.0,-999.0,77,-99.99,,,-99.99,,2013-01-21 12:02:00,
2013-01-21 06:12:00,11.0,5.0,30.23,WNW,285,13.0,-999.0,77,-99.99,,,-99.99,,2013-01-21 12:12:00,
2013-01-21 06:22:00,11.0,6.0,30.23,WSW,257,12.0,-999.0,78,-99.99,,,-99.99,,2013-01-21 12:22:00,
2013-01-21 06:33:00,10.0,5.0,30.24,West,271,13.0,-999.0,80,-99.99,,,-99.99,,2013-01-21 12:33:00,
2013-01-21 06:42:00,10.0,5.0,30.24,West,271,13.0,-999.0,80,-99.99,,,-99.99,,2013-01-21 12:42:00,
2013-01-21 06:52:00,9.0,5.0,30.24,WNW,295,12.0,-999.0,83,-99.99,,,-99.99,,2013-01-21 12:52:00,
2013-01-21 07:02:00,9.0,5.0,30.24,WNW,295,12.0,-999.0,83,-99.99,,,-99.99,,2013-01-21 13:02:00,
2013-01-21 07:13:00,9.0,5.0,30.24,WNW,295,12.0,-999.0,83,-99.99,,,-99.99,,2013-01-21 13:13:00,
2013-01-21 07:23:00,7.0,-1.0,30.27,West,259,11.0,-999.0,68,-99.99,,,-99.99,,2013-01-21 13:23:00,
2013-01-21 07:33:00,7.0,-1.0,30.26,NW,306,9.0,-999.0,70,-99.99,,,-99.99,,2013-01-21 13:33:00,
2013-01-21 07:43:00,7.0,-1.0,30.26,NW,306,9.0,-999.0,70,-99.99,,,-99.99,,2013-01-21 13:43:00,
2013-01-21 07:53:00,7.0,0.0,30.26,West,279,10.0,-999.0,72,-99.99,,,-99.99,,2013-01-21 13:53:00,
2013-01-21 08:03:00,7.0,1.0,30.27,West,271,12.0,-999.0,75,-99.99,,,-99.99,,2013-01-21 14:03:00,
2013-01-21 08:12:00,7.0,1.0,30.27,West,271,12.0,-999.0,75,-99.99,,,-99.99,,2013-01-21 14:12:00,
2013-01-21 08:23:00,6.0,-2.0,30.27,WNW,282,13.0,-999.0,68,-99.99,,,-99.99,,2013-01-21 14:23:00,
2013-01-21 08:32:00,6.0,-2.0,30.27,WNW,285,13.0,-999.0,69,-99.99,,,-99.99,,2013-01-21 14:32:00,
2013-01-21 08:43:00,6.0,-2.0,30.27,WNW,285,13.0,-999.0,69,-99.99,,,-99.99,,2013-01-21 14:43:00,
2013-01-21 08:53:00,5.0,-4.0,30.28,West,273,15.0,-999.0,66,-99.99,,,-99.99,,2013-01-21 14:53:00,
2013-01-21 09:03:00,5.0,-4.0,30.29,West,270,15.0,-999.0,65,-99.99,,,-99.99,,2013-01-21 15:03:00,
2013-01-21 09:13:00,5.0,-4.0,30.29,West,270,15.0,-999.0,65,-99.99,,,-99.99,,2013-01-21 15:13:00,
2013-01-21 09:23:00,5.0,-4.0,30.29,West,270,15.0,-999.0,65,-99.99,,,-99.99,,2013-01-21 15:23:00,
2013-01-21 09:33:00,4.0,-7.0,30.31,West,262,16.0,-999.0,59,-99.99,,,-99.99,,2013-01-21 15:33:00,
2013-01-21 09:43:00,4.0,-7.0,30.31,West,262,16.0,-999.0,59,-99.99,,,-99.99,,2013-01-21 15:43:00,
2013-01-21 09:53:00,4.0,-6.0,30.31,WNW,285,16.0,-999.0,61,-99.99,,,-99.99,,2013-01-21 15:53:00,
2013-01-21 10:03:00,4.0,-6.0,30.32,WNW,303,13.0,-999.0,61,-99.99,,,-99.99,,2013-01-21 16:03:00,
2013-01-21 10:12:00,4.0,-6.0,30.32,WNW,303,13.0,-999.0,61,-99.99,,,-99.99,,2013-01-21 16:12:00,
2013-01-21 10:23:00,4.0,-6.0,30.32,West,259,14.0,-999.0,63,-99.99,,,-99.99,,2013-01-21 16:23:00,
2013-01-21 10:33:00,4.0,-6.0,30.33,WSW,257,15.0,-999.0,61,-99.99,,,-99.99,,2013-01-21 16:33:00,
2013-01-21 10:43:00,4.0,-6.0,30.33,WSW,257,15.0,-999.0,61,-99.99,,,-99.99,,2013-01-21 16:43:00,
2013-01-21 10:53:00,5.0,-5.0,30.32,West,277,13.0,-999.0,63,-99.99,,,-99.99,,2013-01-21 16:53:00,
2013-01-21 11:02:00,5.0,-5.0,30.33,WNW,288,14.0,-999.0,62,-99.99,,,-99.99,,2013-01-21 17:02:00,
2013-01-21 11:12:00,5.0,-5.0,30.33,WNW,288,14.0,-999.0,62,-99.99,,,-99.99,,2013-01-21 17:12:00,
2013-01-21 11:23:00,5.0,-5.0,30.33,West,266,15.0,-999.0,61,-99.99,,,-99.99,,2013-01-21 17:23:00,
2013-01-21 11:33:00,5.0,-5.0,30.33,West,275,13.0,-999.0,61,-99.99,,,-99.99,,2013-01-21 17:33:00,
2013-01-21 11:43:00,5.0,-5.0,30.33,West,275,13.0,-999.0,61,-99.99,,,-99.99,,2013-01-21 17:43:00,
2013-01-21 11:53:00,6.0,-4.0,30.32,WSW,249,14.0,-999.0,62,-99.99,,,-99.99,,2013-01-21 17:53:00,
2013-01-21 12:03:00,6.0,-4.0,30.32,WNW,286,13.0,-999.0,63,-99.99,,,-99.99,,2013-01-21 18:03:00,
2013-01-21 12:12:00,6.0,-4.0,30.32,WNW,286,13.0,-999.0,63,-99.99,,,-99.99,,2013-01-21 18:12:00,
2013-01-21 12:22:00,7.0,-4.0,30.31,West,261,15.0,-999.0,61,-99.99,,,-99.99,,2013-01-21 18:22:00,
2013-01-21 12:33:00,7.0,-4.0,30.31,WNW,298,14.0,-999.0,60,-99.99,,,-99.99,,2013-01-21 18:33:00,
2013-01-21 12:42:00,7.0,-4.0,30.31,WNW,298,14.0,-999.0,60,-99.99,,,-99.99,,2013-01-21 18:42:00,
2013-01-21 12:52:00,8.0,-4.0,30.30,WNW,291,13.0,-999.0,58,-99.99,,,-99.99,,2013-01-21 18:52:00,
2013-01-21 13:03:00,9.0,-3.0,30.30,West,267,13.0,-999.0,58,-99.99,,,-99.99,,2013-01-21 19:03:00,
2013-01-21 13:12:00,9.0,-3.0,30.30,West,267,13.0,-999.0,58,-99.99,,,-99.99,,2013-01-21 19:12:00,
2013-01-21 13:22:00,10.0,-1.0,30.30,West,259,13.0,-999.0,59,-99.99,,,-99.99,,2013-01-21 19:22:00,
2013-01-21 13:33:00,10.0,-3.0,30.29,WNW,292,13.0,-999.0,55,-99.99,,,-99.99,,2013-01-21 19:33:00,
2013-01-21 13:43:00,10.0,-3.0,30.29,WNW,292,13.0,-999.0,55,-99.99,,,-99.99,,2013-01-21 19:43:00,
2013-01-21 13:53:00,10.0,-3.0,30.29,WNW,291,12.0,-999.0,55,-99.99,,,-99.99,,2013-01-21 19:53:00,
2013-01-21 14:03:00,10.0,-2.0,30.29,West,265,12.0,-999.0,58,-99.99,,,-99.99,,2013-01-21 20:03:00,
2013-01-21 14:12:00,10.0,-2.0,30.29,West,265,12.0,-999.0,58,-99.99,,,-99.99,,2013-01-21 20:12:00,
2013-01-21 14:23:00,10.0,-3.0,30.29,NW,308,13.0,-999.0,55,-99.99,,,-99.99,,2013-01-21 20:23:00,
2013-01-21 14:33:00,10.0,-3.0,30.29,West,269,13.0,-999.0,54,-99.99,,,-99.99,,2013-01-21 20:33:00,
2013-01-21 14:43:00,10.0,-3.0,30.29,West,269,13.0,-999.0,54,-99.99,,,-99.99,,2013-01-21 20:43:00,
2013-01-21 14:53:00,10.0,-3.0,30.29,West,274,14.0,-999.0,56,-99.99,,,-99.99,,2013-01-21 20:53:00,
2013-01-21 15:03:00,10.0,-3.0,30.29,West,261,14.0,-999.0,54,-99.99,,,-99.99,,2013-01-21 21:03:00,
2013-01-21 15:12:00,10.0,-3.0,30.29,West,261,14.0,-999.0,54,-99.99,,,-99.99,,2013-01-21 21:12:00,
2013-01-21 15:23:00,11.0,-2.0,30.30,West,280,11.0,-999.0,54,-99.99,,,-99.99,,2013-01-21 21:23:00,
2013-01-21 15:33:00,10.0,-3.0,30.31,WNW,294,11.0,-999.0,54,-99.99,,,-99.99,,2013-01-21 21:33:00,
2013-01-21 15:43:00,10.0,-3.0,30.31,WNW,294,11.0,-999.0,54,-99.99,,,-99.99,,2013-01-21 21:43:00,
2013-01-21 15:53:00,10.0,-4.0,30.31,West,265,13.0,-999.0,53,-99.99,,,-99.99,,2013-01-21 21:53:00,
2013-01-21 16:03:00,10.0,-4.0,30.30,West,262,13.0,-999.0,53,-99.99,,,-99.99,,2013-01-21 22:03:00,
2013-01-21 16:12:00,10.0,-4.0,30.30,West,262,13.0,-999.0,53,-99.99,,,-99.99,,2013-01-21 22:12:00,
2013-01-21 16:23:00,11.0,-2.0,30.30,WSW,250,12.0,-999.0,56,-99.99,,,-99.99,,2013-01-21 22:23:00,
2013-01-21 16:33:00,11.0,-2.0,30.30,WSW,250,12.0,-999.0,56,-99.99,,,-99.99,,2013-01-21 22:33:00,
2013-01-21 16:43:00,11.0,-2.0,30.30,WSW,250,12.0,-999.0,56,-99.99,,,-99.99,,2013-01-21 22:43:00,
2013-01-21 16:52:00,10.0,-3.0,30.31,WSW,248,12.0,-999.0,56,-99.99,,,-99.99,,2013-01-21 22:52:00,
2013-01-21 17:03:00,9.0,-3.0,30.31,WSW,258,13.0,-999.0,56,-99.99,,,-99.99,,2013-01-21 23:03:00,
2013-01-21 17:13:00,9.0,-3.0,30.31,WSW,258,13.0,-999.0,56,-99.99,,,-99.99,,2013-01-21 23:13:00,
2013-01-21 17:23:00,9.0,-3.0,30.30,WNW,292,10.0,-999.0,58,-99.99,,,-99.99,,2013-01-21 23:23:00,
2013-01-21 17:33:00,8.0,-4.0,30.31,West,269,13.0,-999.0,56,-99.99,,,-99.99,,2013-01-21 23:33:00,
2013-01-21 17:42:00,8.0,-4.0,30.31,West,269,13.0,-999.0,56,-99.99,,,-99.99,,2013-01-21 23:42:00,
2013-01-21 17:53:00,8.0,-3.0,30.31,West,278,10.0,-999.0,59,-99.99,,,-99.99,,2013-01-21 23:53:00,
2013-01-21 18:02:00,8.0,-3.0,30.31,West,280,10.0,-999.0,60,-99.99,,,-99.99,,2013-01-22 00:02:00,
2013-01-21 18:12:00,8.0,-3.0,30.31,West,280,10.0,-999.0,60,-99.99,,,-99.99,,2013-01-22 00:12:00,
2013-01-21 18:22:00,8.0,-3.0,30.31,West,273,9.0,-999.0,61,-99.99,,,-99.99,,2013-01-22 00:22:00,
2013-01-21 18:33:00,8.0,-2.0,30.32,West,267,9.0,-999.0,63,-99.99,,,-99.99,,2013-01-22 00:33:00,
2013-01-21 18:43:00,8.0,-2.0,30.32,West,267,9.0,-999.0,63,-99.99,,,-99.99,,2013-01-22 00:43:00,
2013-01-21 18:53:00,8.0,-2.0,30.32,West,262,10.0,-999.0,63,-99.99,,,-99.99,,2013-01-22 00:53:00,
2013-01-21 19:02:00,7.0,-2.0,30.32,West,262,12.0,-999.0,67,-99.99,,,-99.99,,2013-01-22 01:02:00,
2013-01-21 19:12:00,7.0,-2.0,30.32,West,262,12.0,-999.0,67,-99.99,,,-99.99,,2013-01-22 01:12:00,
2013-01-21 19:23:00,7.0,-2.0,30.32,West,262,12.0,-999.0,67,-99.99,,,-99.99,,2013-01-22 01:23:00,
2013-01-21 19:32:00,6.0,0.0,30.33,West,277,11.0,-999.0,74,-99.99,,,-99.99,,2013-01-22 01:32:00,
2013-01-21 19:42:00,6.0,0.0,30.33,West,277,11.0,-999.0,74,-99.99,,,-99.99,,2013-01-22 01:42:00,
2013-01-21 19:52:00,6.0,0.0,30.33,West,261,11.0,-999.0,75,-99.99,,,-99.99,,2013-01-22 01:52:00,
2013-01-21 20:02:00,6.0,0.0,30.34,WSW,246,13.0,-999.0,74,-99.99,,,-99.99,,2013-01-22 02:02:00,
2013-01-21 20:12:00,6.0,0.0,30.34,WSW,246,13.0,-999.0,74,-99.99,,,-99.99,,2013-01-22 02:12:00,
2013-01-21 20:22:00,5.0,-1.0,30.34,WSW,250,13.0,-999.0,75,-99.99,,,-99.99,,2013-01-22 02:22:00,
2013-01-21 20:32:00,5.0,-1.0,30.34,West,263,12.0,-999.0,74,-99.99,,,-99.99,,2013-01-22 02:32:00,
2013-01-21 20:42:00,5.0,-1.0,30.34,West,263,12.0,-999.0,74,-99.99,,,-99.99,,2013-01-22 02:42:00,
2013-01-21 20:53:00,5.0,-1.0,30.35,West,268,11.0,-999.0,75,-99.99,,,-99.99,,2013-01-22 02:53:00,
2013-01-21 21:02:00,5.0,-1.0,30.35,WSW,250,10.0,-999.0,75,-99.99,,,-99.99,,2013-01-22 03:02:00,
2013-01-21 21:12:00,5.0,-1.0,30.35,WSW,250,10.0,-999.0,75,-99.99,,,-99.99,,2013-01-22 03:12:00,
2013-01-21 21:22:00,5.0,-1.0,30.35,West,268,10.0,-999.0,75,-99.99,,,-99.99,,2013-01-22 03:22:00,
2013-01-21 21:32:00,5.0,-1.0,30.36,WSW,257,9.0,-999.0,76,-99.99,,,-99.99,,2013-01-22 03:32:00,
2013-01-21 21:42:00,5.0,-1.0,30.36,WSW,257,9.0,-999.0,76,-99.99,,,-99.99,,2013-01-22 03:42:00,
2013-01-21 21:52:00,5.0,-1.0,30.36,WSW,244,9.0,-999.0,76,-99.99,,,-99.99,,2013-01-22 03:52:00,
2013-01-21 22:02:00,4.0,-2.0,30.36,WSW,248,9.0,-999.0,77,-99.99,,,-99.99,,2013-01-22 04:02:00,
2013-01-21 22:12:00,4.0,-2.0,30.36,WSW,248,9.0,-999.0,77,-99.99,,,-99.99,,2013-01-22 04:12:00,
2013-01-21 22:22:00,4.0,-2.0,30.36,WSW,244,10.0,-999.0,77,-99.99,,,-99.99,,2013-01-22 04:22:00,
2013-01-21 22:32:00,4.0,-1.0,30.36,WSW,251,8.0,-999.0,78,-99.99,,,-99.99,,2013-01-22 04:32:00,
2013-01-21 22:42:00,4.0,-1.0,30.36,WSW,251,8.0,-999.0,78,-99.99,,,-99.99,,2013-01-22 04:42:00,
2013-01-21 22:52:00,4.0,-1.0,30.37,WSW,257,9.0,-999.0,78,-99.99,,,-99.99,,2013-01-22 04:52:00,
2013-01-21 23:04:00,4.0,-1.0,30.37,West,259,9.0,-999.0,79,-99.99,,,-99.99,,2013-01-22 05:04:00,
2013-01-21 23:12:00,4.0,-1.0,30.37,West,259,9.0,-999.0,79,-99.99,,,-99.99,,2013-01-22 05:12:00,
2013-01-21 23:22:00,4.0,-1.0,30.37,West,259,9.0,-999.0,79,-99.99,,,-99.99,,2013-01-22 05:22:00,
2013-01-21 23:32:00,4.0,-1.0,30.37,West,259,9.0,-999.0,79,-99.99,,,-99.99,,2013-01-22 05:32:00,
2013-01-21 23:42:00,4.0,-1.0,30.37,West,260,8.0,-999.0,80,-99.99,,,-99.99,,2013-01-22 05:42:00,
2013-01-21 23:53:00,4.0,-1.0,30.37,West,264,8.0,-999.0,79,-99.99,,,-99.99,,2013-01-22 05:53:00,